Time (yr/mo/day/hr) Wind Speed at 50 metres (Glencore Tower; km/hr) Wind Direction at 50 metres (Glencore Tower; degrees) Temperature (oC) SO2 Dispersion Conditions Mixing Height (m)
2020 06 04 01 8 358 13 Stable 173
2020 06 04 02 10 356 12 Stable 358
2020 06 04 03 11 349 11 Stable 409
2020 06 04 04 11 353 9 Stable 358
2020 06 04 05 6 342 8 Stable 86
2020 06 04 06 4 292 9 Slightly unstable 60
2020 06 04 07 3 277 11 Moderately unstable 175
2020 06 04 08 3 294 14 Moderately unstable 323
2020 06 04 09 5 294 16 Moderately unstable 492
2020 06 04 10 9 305 18 Moderately unstable 740
2020 06 04 11 9 297 19 Moderately unstable 1181
2020 06 04 12 10 303 21 Very unstable 1527
2020 06 04 13 9 301 22 Very unstable 1745
2020 06 04 14 8 294 22 Very unstable 1850
2020 06 04 15 6 270 23 Moderately unstable 1847
2020 06 04 16 7 237 23 Moderately unstable 1824
2020 06 04 17 9 227 23 Moderately unstable 1787
2020 06 04 18 16 218 21 Slightly unstable 1718
2020 06 04 19 14 222 20 Neutral 801
2020 06 04 20 12 226 18 Neutral 452
2020 06 04 21 12 226 17 Stable 423
2020 06 04 22 12 227 16 Slightly stable 464
2020 06 04 23 14 228 14 Slightly stable 575
2020 06 05 00 14 231 13 Slightly stable 579
2020 06 05 01 12 241 12 Slightly stable 465